Aviation Digital Data Service (ADDS)

Output produced by METARs form (1635 UTC 24 April 2014)
found at http://aviationweather.gov/adds/metars/
 
KDAG 241550Z AUTO 29014KT 10SM CLR 17/M03 A3001 RMK AO2 SLP145 T01671033
KDAG 241120Z 2412/2512 27011KT P6SM SKC 
     FM241800 30008KT P6SM SKC 
     FM250000 25012G20KT P6SM SCT250
       
KEDW 241558Z 03003KT 80SM FEW250 14/M02 A3003 RMK AO2A SLP162 T01361018
TAF KEDW 2410/2516 VRB06KT 9999 SKC QNH2996INS 
     BECMG 2420/2421 24012G18KT 9999 SKC QNH2993INS 
     BECMG 2422/2423 25015G25KT 9999 SKC QNH2992INS 
     TEMPO 2422/2503 25020G30KT 
     BECMG 2504/2505 23009KT 9999 FEW250 QNH2996INS 
     BECMG 2515/2516 23012G18KT 9999 SKC QNH2994INS TX27/2423Z TN07/2512Z
       
KVCV 241615Z AUTO 26005KT 10SM CLR 14/M03 A3005 RMK AO2
KONT 241553Z 00000KT 10SM FEW250 18/04 A2998 RMK AO2 SLP145 T01780044
KONT 241136Z 2412/2518 VRB04KT P6SM FEW250 
     FM242100 25012KT P6SM SCT250 
     FM250500 VRB05KT P6SM SCT250
       
KSNA 241553Z 00000KT 10SM FEW300 18/11 A2999 RMK AO2 SLP154 T01830111
KSNA 241136Z 2412/2512 20005KT P6SM SCT250 
     FM241900 22010KT P6SM FEW020 
     FM250300 VRB05KT P6SM BKN015 
     FM250600 14007KT P6SM OVC015
       
KSAN 241551Z VRB03KT 10SM FEW020 SCT250 17/12 A3001 RMK AO2 SLP161 T01720117 $
KSAN 241427Z 2414/2518 VRB04KT P6SM FEW020 SCT250 
     FM242100 22008KT P6SM SCT250 
     FM250300 17005KT P6SM SCT015 
     FM250600 18004KT P6SM BKN015 
     FM251700 19008KT P6SM BKN020
       
KNID 241556Z 02004KT 10SM CLR 16/M01 A3001 RMK AO2 SLP156 T01561011 $
TAF KNID 2415/2515 VRB05KT 9999 SKC QNH2993INS 
     FM242000 18008G16KT 9999 FEW270 QNH2985INS 
     FM242300 20014G26KT 9999 FEW270 520009 QNH2980INS 
     BECMG 2501/2503 21012G18KT 9999 FEW200 510009 SCT250 QNH2982INS 
     BECMG 2511/2513 21015G25KT 9999 SCT180 BKN240 520009 520909 QNH2980INS T28/2423Z T16/2514Z
       
KNXP 241556Z 32008KT 10SM FEW250 18/M04 A3006 RMK AO2 SLP153 T01781044 $
TAF KNXP 2415/2515 VRB06KT 9999 FEW200 QNH2992INS 
     BECMG 2500/2502 24009KT 9999 FEW200 QNH2985INS 
     TEMPO 2502/2506 20016G22KT T25/2423Z T15/2513Z
       
KPSP 241553Z 00000KT 10SM CLR 24/M02 A2994 RMK AO2 SLP134 T02441017
KPSP 241136Z 2412/2512 VRB05KT P6SM FEW250 
     FM242300 32010KT P6SM SCT250 
     FM250500 VRB05KT P6SM SCT250
       
KLAX 241553Z 00000KT 10SM FEW250 19/11 A3000 RMK AO2 SLP156 T01890111
KLAX 241442Z 2415/2518 11004KT P6SM FEW200 SCT280 
     FM241700 25008KT P6SM SKC 
     FM250300 VRB03KT P6SM FEW200 
     FM250900 VRB03KT P6SM BKN020 
     FM251600 19006KT P6SM BKN020 OVC150
       
KCNO 241553Z 00000KT 10SM SCT250 18/07 A3000 RMK AO2 SLP154 T01780072
KSMO 241551Z 12004KT 10SM CLR 19/09 A3000 RMK AO2 SLP157 T01940094
KLGB 241553Z 00000KT 10SM CLR 18/11 A2999 RMK AO2 SLP154 T01780111
KLGB 241136Z 2412/2512 VRB03KT P6SM SCT200 
     FM241600 18006KT P6SM SKC 
     FM242300 29010KT P6SM FEW200 
     FM250300 VRB03KT P6SM FEW200 
     FM250900 VRB03KT P6SM BKN020
       
KVNY 241551Z 12003KT 10SM FEW300 19/03 A2999 RMK AO2 SLP149 T01890033
KVNY 241136Z 2412/2512 VRB03KT P6SM SKC 
     FM241400 36006KT P6SM SKC 
     FM242100 14008KT P6SM SCT200 
     FM250300 VRB03KT P6SM FEW200
       
KBUR 241553Z 00000KT 10SM CLR 17/05 A2999 RMK AO2 SLP146 T01720050
KBUR 241136Z 2412/2512 VRB03KT P6SM SKC 
     FM242000 17008KT P6SM SKC 
     FM250300 VRB03KT P6SM FEW200
       
KBFL 241554Z 17005KT 10SM CLR 14/02 A3009 RMK AO2 SLP185 T01440022
KBFL 241125Z 2412/2512 VRB03KT P6SM FEW200 
     FM242100 32008KT P6SM SCT200
       
KPMD 241553Z 03003KT 10SM CLR 15/M03 A3004 RMK AO2 SLP162 T01501028
KPMD 241136Z 2412/2512 VRB03KT P6SM SKC 
     FM242000 27012KT P6SM SKC 
     FM242300 27015G25KT P6SM SKC 
     FM250300 27012KT P6SM SKC
       
KOXR 241551Z 00000KT 10SM CLR 18/04 A2999 RMK AO2 SLP154 T01780039
KOXR 241136Z 2412/2512 VRB03KT P6SM SKC 
     FM242000 27010KT P6SM SKC 
     FM250300 VRB03KT P6SM SKC 
     FM250900 VRB03KT P6SM BKN015
       
KWJF 241556Z 30007KT 10SM CLR 17/M01 A3004 RMK AO2 SLP166 T01671011
KWJF 241136Z 2412/2512 VRB03KT P6SM SKC 
     FM242100 26012KT P6SM SKC 
     FM242300 27015G25KT P6SM SKC 
     FM250400 27015KT P6SM SKC
       
KCMA 241555Z 00000KT 10SM CLR 17/06 A2999 RMK AO2 SLP163 T01720061 $
KFAT 241553Z 00000KT 10SM CLR 16/06 A3008 RMK AO2 SLP185 T01610056
KFAT 241125Z 2412/2512 30007KT P6SM FEW200 
     FM250000 31012KT P6SM SCT150 BKN200
       
KEED 241556Z AUTO 13004KT 10SM CLR 22/M12 A2995 RMK AO2 SLP118 T02221117
KEED 241120Z 2412/2512 VRB05KT P6SM SKC 
     FM242100 20010KT P6SM SKC 
     FM250300 24008KT P6SM FEW250
       
KLSV 241558Z AUTO 01002KT 10SM CLR 19/M09 A2999 RMK AO2 SLP141 T01941092
TAF KLSV 2409/2515 VRB06KT 9999 SKC QNH2982INS 
     BECMG 2419/2420 17009KT 9999 SKC QNH2974INS 
     BECMG 2505/2506 20012KT 9999 FEW220 QNH2976INS 
     BECMG 2513/2514 22015G25KT 9999 FEW150 BKN220 520009 QNH2979INS TX28/2500Z TN14/2412Z
       
KLAS 241556Z 00000KT 10SM FEW250 20/M11 A2996 RMK AO2 SLP128 T02001106
KLAS 241618Z 2416/2512 03007KT P6SM SCT250 
     FM241900 09006KT P6SM SKC 
     FM242200 17010KT P6SM SKC 
     FM250200 21010KT P6SM FEW250
       
KHII 241615Z AUTO 17004KT 10SM CLR 22/M09 A2995 RMK AO2
KIFP 241615Z AUTO 22003KT 10SM CLR 20/M07 A2996 RMK AO2